sensor_id;sensor_type;location;lat;lon;timestamp;pressure;altitude;pressure_sealevel;temperature;humidity
46714;BME280;32445;51.376;10.874;2023-08-20T00:01:12;99841.63;;;27.20;50.08
46714;BME280;32445;51.376;10.874;2023-08-20T00:04:14;99842.63;;;27.19;50.21
46714;BME280;32445;51.376;10.874;2023-08-20T00:07:14;99837.56;;;27.16;50.23
46714;BME280;32445;51.376;10.874;2023-08-20T00:10:18;99842.22;;;27.14;50.50
46714;BME280;32445;51.376;10.874;2023-08-20T00:13:18;99841.50;;;27.12;50.30
46714;BME280;32445;51.376;10.874;2023-08-20T00:16:19;99838.13;;;27.10;50.55
46714;BME280;32445;51.376;10.874;2023-08-20T00:19:19;99837.41;;;27.08;50.24
46714;BME280;32445;51.376;10.874;2023-08-20T00:22:22;99840.34;;;27.05;50.25
46714;BME280;32445;51.376;10.874;2023-08-20T00:25:23;99836.16;;;27.02;50.67
46714;BME280;32445;51.376;10.874;2023-08-20T00:28:23;99839.94;;;27.00;50.54
46714;BME280;32445;51.376;10.874;2023-08-20T00:31:24;99845.41;;;26.98;50.75
46714;BME280;32445;51.376;10.874;2023-08-20T00:34:24;99841.19;;;26.96;50.38
46714;BME280;32445;51.376;10.874;2023-08-20T00:37:25;99836.16;;;26.92;50.74
46714;BME280;32445;51.376;10.874;2023-08-20T00:40:25;99841.75;;;26.89;50.78
46714;BME280;32445;51.376;10.874;2023-08-20T00:43:26;99848.19;;;26.87;50.62
46714;BME280;32445;51.376;10.874;2023-08-20T00:46:26;99847.59;;;26.83;50.68
46714;BME280;32445;51.376;10.874;2023-08-20T00:49:26;99847.88;;;26.80;50.71
46714;BME280;32445;51.376;10.874;2023-08-20T00:52:27;99855.19;;;26.78;50.73
46714;BME280;32445;51.376;10.874;2023-08-20T00:55:27;99844.78;;;26.75;50.72
46714;BME280;32445;51.376;10.874;2023-08-20T00:58:28;99845.06;;;26.72;50.75
46714;BME280;32445;51.376;10.874;2023-08-20T01:01:28;99846.19;;;26.69;50.99
46714;BME280;32445;51.376;10.874;2023-08-20T01:04:29;99845.44;;;26.67;51.13
46714;BME280;32445;51.376;10.874;2023-08-20T01:11:17;99845.28;;;26.59;51.53
46714;BME280;32445;51.376;10.874;2023-08-20T01:14:21;99850.59;;;26.59;51.44
46714;BME280;32445;51.376;10.874;2023-08-20T01:17:22;99848.19;;;26.56;51.16
46714;BME280;32445;51.376;10.874;2023-08-20T01:20:25;99839.66;;;26.52;51.20
46714;BME280;32445;51.376;10.874;2023-08-20T01:27:26;99840.31;;;26.45;51.61
46714;BME280;32445;51.376;10.874;2023-08-20T01:30:29;99846.63;;;26.44;51.59
46714;BME280;32445;51.376;10.874;2023-08-20T01:33:30;99842.56;;;26.39;51.44
46714;BME280;32445;51.376;10.874;2023-08-20T01:36:31;99855.28;;;26.36;51.74
46714;BME280;32445;51.376;10.874;2023-08-20T01:39:31;99852.88;;;26.33;51.39
46714;BME280;32445;51.376;10.874;2023-08-20T01:42:32;99854.84;;;26.31;51.17
46714;BME280;32445;51.376;10.874;2023-08-20T01:45:32;99852.44;;;26.28;51.60
46714;BME280;32445;51.376;10.874;2023-08-20T01:48:33;99853.56;;;26.25;51.58
46714;BME280;32445;51.376;10.874;2023-08-20T01:51:33;99856.47;;;26.22;51.47
46714;BME280;32445;51.376;10.874;2023-08-20T01:54:33;99864.56;;;26.20;51.47
46714;BME280;32445;51.376;10.874;2023-08-20T01:57:34;99860.38;;;26.18;51.89
46714;BME280;32445;51.376;10.874;2023-08-20T02:00:34;99864.97;;;26.16;51.80
46714;BME280;32445;51.376;10.874;2023-08-20T02:03:36;99870.44;;;26.14;51.94
46714;BME280;32445;51.376;10.874;2023-08-20T02:06:37;99873.34;;;26.11;52.23
46714;BME280;32445;51.376;10.874;2023-08-20T02:09:37;99872.75;;;26.07;51.96
46714;BME280;32445;51.376;10.874;2023-08-20T02:12:37;99878.22;;;26.06;51.90
46714;BME280;32445;51.376;10.874;2023-08-20T02:15:38;99883.81;;;26.03;51.94
46714;BME280;32445;51.376;10.874;2023-08-20T02:18:38;99877.03;;;25.99;51.84
46714;BME280;32445;51.376;10.874;2023-08-20T02:21:38;99886.97;;;25.97;51.95
46714;BME280;32445;51.376;10.874;2023-08-20T02:24:39;99887.22;;;25.94;52.03
46714;BME280;32445;51.376;10.874;2023-08-20T02:27:39;99882.16;;;25.90;52.06
46714;BME280;32445;51.376;10.874;2023-08-20T02:30:44;99886.06;;;25.86;52.33
46714;BME280;32445;51.376;10.874;2023-08-20T02:33:44;99883.63;;;25.83;52.22
46714;BME280;32445;51.376;10.874;2023-08-20T02:36:45;99890.06;;;25.81;52.27
46714;BME280;32445;51.376;10.874;2023-08-20T02:39:45;99885.03;;;25.78;52.17
46714;BME280;32445;51.376;10.874;2023-08-20T02:42:45;99891.56;;;25.73;52.22
46714;BME280;32445;51.376;10.874;2023-08-20T02:45:46;99891.81;;;25.70;52.32
46714;BME280;32445;51.376;10.874;2023-08-20T02:48:46;99888.44;;;25.68;52.36
46714;BME280;32445;51.376;10.874;2023-08-20T02:51:46;99893.19;;;25.65;52.44
46714;BME280;32445;51.376;10.874;2023-08-20T02:54:47;99887.97;;;25.63;52.38
46714;BME280;32445;51.376;10.874;2023-08-20T02:57:47;99882.91;;;25.60;52.34
46714;BME280;32445;51.376;10.874;2023-08-20T03:00:47;99894.66;;;25.58;52.35
46714;BME280;32445;51.376;10.874;2023-08-20T03:03:48;99893.94;;;25.55;52.49
46714;BME280;32445;51.376;10.874;2023-08-20T03:06:48;99890.56;;;25.53;52.75
46714;BME280;32445;51.376;10.874;2023-08-20T03:09:48;99890.78;;;25.50;52.70
46714;BME280;32445;51.376;10.874;2023-08-20T03:12:49;99883.94;;;25.48;52.81
46714;BME280;32445;51.376;10.874;2023-08-20T03:15:50;99882.25;;;25.47;53.05
46714;BME280;32445;51.376;10.874;2023-08-20T03:18:50;99882.50;;;25.44;52.82
46714;BME280;32445;51.376;10.874;2023-08-20T03:21:50;99886.13;;;25.43;52.92
46714;BME280;32445;51.376;10.874;2023-08-20T03:24:51;99875.75;;;25.39;52.82
46714;BME280;32445;51.376;10.874;2023-08-20T03:27:52;99885.78;;;25.36;52.78
46714;BME280;32445;51.376;10.874;2023-08-20T03:30:52;99883.38;;;25.33;52.83
46714;BME280;32445;51.376;10.874;2023-08-20T03:33:52;99888.91;;;25.30;52.89
46714;BME280;32445;51.376;10.874;2023-08-20T03:36:53;99891.00;;;25.26;52.75
46714;BME280;32445;51.376;10.874;2023-08-20T03:39:53;99900.88;;;25.24;52.67
46714;BME280;32445;51.376;10.874;2023-08-20T03:42:53;99896.66;;;25.21;52.94
46714;BME280;32445;51.376;10.874;2023-08-20T03:45:54;99890.75;;;25.18;53.09
46714;BME280;32445;51.376;10.874;2023-08-20T03:48:54;99898.00;;;25.16;53.09
46714;BME280;32445;51.376;10.874;2023-08-20T03:51:54;99898.13;;;25.14;53.01
46714;BME280;32445;51.376;10.874;2023-08-20T03:54:55;99898.38;;;25.11;52.72
46714;BME280;32445;51.376;10.874;2023-08-20T03:57:55;99897.78;;;25.08;52.92
46714;BME280;32445;51.376;10.874;2023-08-20T04:00:55;99898.06;;;25.04;52.92
46714;BME280;32445;51.376;10.874;2023-08-20T04:03:56;99900.81;;;25.03;52.89
46714;BME280;32445;51.376;10.874;2023-08-20T04:06:56;99895.88;;;24.98;52.71
46714;BME280;32445;51.376;10.874;2023-08-20T04:09:56;99890.81;;;24.95;53.07
46714;BME280;32445;51.376;10.874;2023-08-20T04:12:57;99895.41;;;24.93;53.32
46714;BME280;32445;51.376;10.874;2023-08-20T04:15:58;99894.66;;;24.91;53.28
46714;BME280;32445;51.376;10.874;2023-08-20T04:18:58;99896.75;;;24.87;53.17
46714;BME280;32445;51.376;10.874;2023-08-20T04:21:59;99908.31;;;24.86;53.24
46714;BME280;32445;51.376;10.874;2023-08-20T04:24:59;99908.44;;;24.85;53.44
46714;BME280;32445;51.376;10.874;2023-08-20T04:27:59;99910.34;;;24.83;53.39
46714;BME280;32445;51.376;10.874;2023-08-20T04:31:00;99918.44;;;24.81;53.60
46714;BME280;32445;51.376;10.874;2023-08-20T04:34:00;99917.63;;;24.81;53.33
46714;BME280;32445;51.376;10.874;2023-08-20T04:37:01;99914.13;;;24.80;53.38
46714;BME280;32445;51.376;10.874;2023-08-20T04:40:01;99907.25;;;24.78;53.52
46714;BME280;32445;51.376;10.874;2023-08-20T04:43:04;99910.84;;;24.77;53.78
46714;BME280;32445;51.376;10.874;2023-08-20T04:46:05;99912.81;;;24.75;53.87
46714;BME280;32445;51.376;10.874;2023-08-20T04:49:05;99921.72;;;24.74;53.75
46714;BME280;32445;51.376;10.874;2023-08-20T04:52:05;99929.69;;;24.74;53.72
46714;BME280;32445;51.376;10.874;2023-08-20T04:55:06;99928.00;;;24.73;54.03
46714;BME280;32445;51.376;10.874;2023-08-20T04:58:07;99919.19;;;24.72;54.23
46714;BME280;32445;51.376;10.874;2023-08-20T05:01:08;99921.00;;;24.72;54.31
46714;BME280;32445;51.376;10.874;2023-08-20T05:04:09;99931.50;;;24.73;54.58
46714;BME280;32445;51.376;10.874;2023-08-20T05:07:09;99934.28;;;24.72;54.46
46714;BME280;32445;51.376;10.874;2023-08-20T05:10:09;99954.53;;;24.73;54.45
46714;BME280;32445;51.376;10.874;2023-08-20T05:13:10;99953.69;;;24.72;54.37
46714;BME280;32445;51.376;10.874;2023-08-20T05:16:10;99970.59;;;24.71;54.71
46714;BME280;32445;51.376;10.874;2023-08-20T05:19:11;99972.41;;;24.70;54.86
46714;BME280;32445;51.376;10.874;2023-08-20T05:22:11;99969.75;;;24.70;54.87
46714;BME280;32445;51.376;10.874;2023-08-20T05:25:12;99964.56;;;24.69;54.88
46714;BME280;32445;51.376;10.874;2023-08-20T05:28:12;99963.69;;;24.68;54.74
46714;BME280;32445;51.376;10.874;2023-08-20T05:31:12;99969.00;;;24.68;55.07
46714;BME280;32445;51.376;10.874;2023-08-20T05:34:13;99967.34;;;24.67;54.99
46714;BME280;32445;51.376;10.874;2023-08-20T05:37:13;99971.66;;;24.68;55.00
46714;BME280;32445;51.376;10.874;2023-08-20T05:40:13;99974.31;;;24.68;55.22
46714;BME280;32445;51.376;10.874;2023-08-20T05:43:14;99981.31;;;24.69;55.24
46714;BME280;32445;51.376;10.874;2023-08-20T05:46:14;99976.84;;;24.70;55.55
46714;BME280;32445;51.376;10.874;2023-08-20T05:49:14;99986.38;;;24.73;55.54
46714;BME280;32445;51.376;10.874;2023-08-20T05:52:15;99996.75;;;24.76;55.05
46714;BME280;32445;51.376;10.874;2023-08-20T05:55:16;99994.84;;;24.78;54.91
46714;BME280;32445;51.376;10.874;2023-08-20T05:58:16;100001.00;;;24.78;55.38
46714;BME280;32445;51.376;10.874;2023-08-20T06:01:16;99990.25;;;24.80;55.45
46714;BME280;32445;51.376;10.874;2023-08-20T06:04:17;99990.88;;;24.83;55.39
46714;BME280;32445;51.376;10.874;2023-08-20T06:07:18;99995.09;;;24.86;55.45
46714;BME280;32445;51.376;10.874;2023-08-20T06:10:19;100001.97;;;24.88;55.70
46714;BME280;32445;51.376;10.874;2023-08-20T06:13:19;100010.53;;;24.92;55.64
46714;BME280;32445;51.376;10.874;2023-08-20T06:16:20;100003.16;;;24.96;55.72
46714;BME280;32445;51.376;10.874;2023-08-20T06:19:20;100006.56;;;24.98;55.52
46714;BME280;32445;51.376;10.874;2023-08-20T06:22:20;100005.25;;;25.03;55.32
46714;BME280;32445;51.376;10.874;2023-08-20T06:25:21;100003.16;;;25.07;55.37
46714;BME280;32445;51.376;10.874;2023-08-20T06:28:21;100005.47;;;25.12;55.50
46714;BME280;32445;51.376;10.874;2023-08-20T06:31:22;100009.44;;;25.17;55.30
46714;BME280;32445;51.376;10.874;2023-08-20T06:34:22;100009.94;;;25.22;55.14
46714;BME280;32445;51.376;10.874;2023-08-20T06:37:23;100013.91;;;25.28;55.21
46714;BME280;32445;51.376;10.874;2023-08-20T06:40:23;100019.50;;;25.36;54.95
46714;BME280;32445;51.376;10.874;2023-08-20T06:43:23;100023.47;;;25.42;54.92
46714;BME280;32445;51.376;10.874;2023-08-20T06:46:24;100029.97;;;25.49;54.41
46714;BME280;32445;51.376;10.874;2023-08-20T06:49:24;100038.41;;;25.54;54.65
46714;BME280;32445;51.376;10.874;2023-08-20T06:52:25;100031.63;;;25.62;54.34
46714;BME280;32445;51.376;10.874;2023-08-20T06:55:25;100027.50;;;25.69;54.26
46714;BME280;32445;51.376;10.874;2023-08-20T06:58:25;100034.88;;;25.77;54.24
46714;BME280;32445;51.376;10.874;2023-08-20T07:01:25;100037.84;;;25.83;54.29
46714;BME280;32445;51.376;10.874;2023-08-20T07:04:26;100055.38;;;25.86;54.32
46714;BME280;32445;51.376;10.874;2023-08-20T07:07:26;100053.47;;;25.88;54.02
46714;BME280;32445;51.376;10.874;2023-08-20T07:10:26;100060.94;;;25.94;53.91
46714;BME280;32445;51.376;10.874;2023-08-20T07:13:27;100062.00;;;26.03;53.79
46714;BME280;32445;51.376;10.874;2023-08-20T07:16:27;100070.09;;;26.13;54.05
46714;BME280;32445;51.376;10.874;2023-08-20T07:19:28;100066.56;;;26.23;53.72
46714;BME280;32445;51.376;10.874;2023-08-20T07:22:28;100074.34;;;26.36;53.48
46714;BME280;32445;51.376;10.874;2023-08-20T07:25:29;100067.16;;;26.48;53.19
46714;BME280;32445;51.376;10.874;2023-08-20T07:28:29;100070.72;;;26.58;53.34
46714;BME280;32445;51.376;10.874;2023-08-20T07:31:49;100069.09;;;26.67;52.86
46714;BME280;32445;51.376;10.874;2023-08-20T07:34:53;100072.94;;;26.74;52.60
46714;BME280;32445;51.376;10.874;2023-08-20T07:37:59;100081.28;;;26.81;52.81
46714;BME280;32445;51.376;10.874;2023-08-20T07:40:59;100069.25;;;26.87;52.50
46714;BME280;32445;51.376;10.874;2023-08-20T07:44:00;100057.38;;;26.91;52.30
46714;BME280;32445;51.376;10.874;2023-08-20T07:47:00;100054.03;;;26.99;52.28
46714;BME280;32445;51.376;10.874;2023-08-20T07:50:04;100050.56;;;27.08;52.39
46714;BME280;32445;51.376;10.874;2023-08-20T07:53:05;100056.19;;;27.15;51.93
46714;BME280;32445;51.376;10.874;2023-08-20T07:56:06;100055.41;;;27.24;51.85
46714;BME280;32445;51.376;10.874;2023-08-20T07:59:09;100053.91;;;27.31;51.86
46714;BME280;32445;51.376;10.874;2023-08-20T08:02:09;100053.09;;;27.40;51.67
46714;BME280;32445;51.376;10.874;2023-08-20T08:05:13;100057.63;;;27.50;51.86
46714;BME280;32445;51.376;10.874;2023-08-20T08:08:18;100054.97;;;27.59;52.29
46714;BME280;32445;51.376;10.874;2023-08-20T08:11:18;100051.06;;;27.73;51.32
46714;BME280;32445;51.376;10.874;2023-08-20T08:14:21;100057.25;;;27.84;50.61
46714;BME280;32445;51.376;10.874;2023-08-20T08:17:22;100061.78;;;27.93;49.96
46714;BME280;32445;51.376;10.874;2023-08-20T08:20:22;100056.63;;;28.01;49.44
46714;BME280;32445;51.376;10.874;2023-08-20T08:23:23;100051.28;;;28.11;49.97
46714;BME280;32445;51.376;10.874;2023-08-20T08:26:23;100045.25;;;28.19;49.87
46714;BME280;32445;51.376;10.874;2023-08-20T08:29:23;100056.75;;;28.29;49.56
46714;BME280;32445;51.376;10.874;2023-08-20T08:32:24;100047.19;;;28.36;49.63
46714;BME280;32445;51.376;10.874;2023-08-20T08:35:24;100050.69;;;28.46;49.53
46714;BME280;32445;51.376;10.874;2023-08-20T08:38:24;100050.00;;;28.54;49.23
46714;BME280;32445;51.376;10.874;2023-08-20T08:41:25;100051.16;;;28.61;49.20
46714;BME280;32445;51.376;10.874;2023-08-20T08:44:27;100044.25;;;28.69;48.50
46714;BME280;32445;51.376;10.874;2023-08-20T08:47:29;100049.81;;;28.75;48.49
46714;BME280;32445;51.376;10.874;2023-08-20T08:50:31;100038.59;;;28.81;48.49
46714;BME280;32445;51.376;10.874;2023-08-20T08:53:35;100031.81;;;28.87;48.79
46714;BME280;32445;51.376;10.874;2023-08-20T08:56:35;100032.19;;;28.92;48.23
46714;BME280;32445;51.376;10.874;2023-08-20T08:59:36;100046.13;;;28.96;47.91
46714;BME280;32445;51.376;10.874;2023-08-20T09:02:36;100046.06;;;29.06;48.13
46714;BME280;32445;51.376;10.874;2023-08-20T09:05:50;100035.09;;;29.09;47.39
46714;BME280;32445;51.376;10.874;2023-08-20T09:09:03;100028.75;;;29.10;47.73
46714;BME280;32445;51.376;10.874;2023-08-20T09:12:20;100030.16;;;29.14;48.32
46714;BME280;32445;51.376;10.874;2023-08-20T09:15:21;100031.53;;;29.18;48.15
46714;BME280;32445;51.376;10.874;2023-08-20T09:18:21;100039.41;;;29.29;47.63
46714;BME280;32445;51.376;10.874;2023-08-20T09:21:26;100041.88;;;29.41;47.48
46714;BME280;32445;51.376;10.874;2023-08-20T09:24:33;100043.94;;;29.47;47.09
46714;BME280;32445;51.376;10.874;2023-08-20T09:27:39;100039.00;;;29.52;47.44
46714;BME280;32445;51.376;10.874;2023-08-20T09:30:57;100049.25;;;29.57;47.53
46714;BME280;32445;51.376;10.874;2023-08-20T09:33:58;100050.88;;;29.67;47.36
46714;BME280;32445;51.376;10.874;2023-08-20T09:36:58;100039.09;;;29.78;47.00
46714;BME280;32445;51.376;10.874;2023-08-20T09:39:59;100047.56;;;29.83;46.78
46714;BME280;32445;51.376;10.874;2023-08-20T09:42:59;100051.47;;;29.89;46.69
46714;BME280;32445;51.376;10.874;2023-08-20T09:46:02;100057.50;;;29.91;46.48
46714;BME280;32445;51.376;10.874;2023-08-20T09:49:06;100058.63;;;29.89;46.64
46714;BME280;32445;51.376;10.874;2023-08-20T09:52:10;100055.78;;;29.90;46.98
46714;BME280;32445;51.376;10.874;2023-08-20T09:55:16;100056.50;;;29.92;46.84
46714;BME280;32445;51.376;10.874;2023-08-20T09:58:18;100053.34;;;29.97;47.30
46714;BME280;32445;51.376;10.874;2023-08-20T10:01:22;100056.44;;;30.02;46.66
46714;BME280;32445;51.376;10.874;2023-08-20T10:04:22;100064.50;;;30.10;46.53
46714;BME280;32445;51.376;10.874;2023-08-20T10:07:22;100056.72;;;30.17;46.53
46714;BME280;32445;51.376;10.874;2023-08-20T10:10:25;100066.13;;;30.21;46.56
46714;BME280;32445;51.376;10.874;2023-08-20T10:13:27;100062.31;;;30.24;46.50
46714;BME280;32445;51.376;10.874;2023-08-20T10:16:28;100065.50;;;30.27;46.69
46714;BME280;32445;51.376;10.874;2023-08-20T10:19:28;100071.09;;;30.34;46.38
46714;BME280;32445;51.376;10.874;2023-08-20T10:22:47;100064.44;;;30.38;46.25
46714;BME280;32445;51.376;10.874;2023-08-20T10:25:52;100069.47;;;30.41;45.61
46714;BME280;32445;51.376;10.874;2023-08-20T10:35:53;100058.47;;;30.44;45.96
46714;BME280;32445;51.376;10.874;2023-08-20T10:38:54;100061.56;;;30.49;45.84
46714;BME280;32445;51.376;10.874;2023-08-20T10:45:22;100055.88;;;30.52;46.00
46714;BME280;32445;51.376;10.874;2023-08-20T10:48:23;100059.06;;;30.56;45.96
46714;BME280;32445;51.376;10.874;2023-08-20T10:51:28;100059.59;;;30.60;45.50
46714;BME280;32445;51.376;10.874;2023-08-20T10:54:32;100060.59;;;30.59;45.35
46714;BME280;32445;51.376;10.874;2023-08-20T10:57:35;100057.91;;;30.59;45.69
46714;BME280;32445;51.376;10.874;2023-08-20T11:00:41;100050.75;;;30.59;45.13
46714;BME280;32445;51.376;10.874;2023-08-20T11:03:44;100053.94;;;30.63;45.16
46714;BME280;32445;51.376;10.874;2023-08-20T11:06:46;100046.59;;;30.65;45.13
46714;BME280;32445;51.376;10.874;2023-08-20T11:09:47;100046.28;;;30.68;45.45
46714;BME280;32445;51.376;10.874;2023-08-20T11:12:48;100037.91;;;30.71;45.76
46714;BME280;32445;51.376;10.874;2023-08-20T11:15:49;100039.78;;;30.79;45.43
46714;BME280;32445;51.376;10.874;2023-08-20T11:18:52;100039.03;;;30.86;45.04
46714;BME280;32445;51.376;10.874;2023-08-20T11:21:54;100045.59;;;30.92;44.98
46714;BME280;32445;51.376;10.874;2023-08-20T11:24:57;100033.69;;;30.95;45.12
46714;BME280;32445;51.376;10.874;2023-08-20T11:27:57;100033.09;;;31.01;45.35
46714;BME280;32445;51.376;10.874;2023-08-20T11:30:57;100027.75;;;31.09;45.06
46714;BME280;32445;51.376;10.874;2023-08-20T11:33:58;100022.97;;;31.21;45.51
46714;BME280;32445;51.376;10.874;2023-08-20T11:36:59;100021.63;;;31.33;44.84
46714;BME280;32445;51.376;10.874;2023-08-20T11:39:59;100030.09;;;31.47;44.81
46714;BME280;32445;51.376;10.874;2023-08-20T11:43:02;100027.97;;;31.59;44.51
46714;BME280;32445;51.376;10.874;2023-08-20T11:46:05;100030.00;;;31.73;44.65
46714;BME280;32445;51.376;10.874;2023-08-20T11:49:13;100030.03;;;31.81;42.95
46714;BME280;32445;51.376;10.874;2023-08-20T11:52:18;100021.63;;;31.84;43.54
46714;BME280;32445;51.376;10.874;2023-08-20T11:55:23;100022.66;;;31.91;43.50
46714;BME280;32445;51.376;10.874;2023-08-20T11:58:24;100019.13;;;31.91;43.63
46714;BME280;32445;51.376;10.874;2023-08-20T12:01:33;100020.31;;;31.97;43.41
46714;BME280;32445;51.376;10.874;2023-08-20T12:04:33;100028.69;;;32.02;43.39
46714;BME280;32445;51.376;10.874;2023-08-20T12:07:34;100027.53;;;32.04;42.98
46714;BME280;32445;51.376;10.874;2023-08-20T12:10:34;100028.19;;;32.06;43.14
46714;BME280;32445;51.376;10.874;2023-08-20T12:13:35;100023.66;;;32.07;42.93
46714;BME280;32445;51.376;10.874;2023-08-20T12:16:35;100019.97;;;32.08;43.03
46714;BME280;32445;51.376;10.874;2023-08-20T12:19:36;100023.50;;;32.08;43.14
46714;BME280;32445;51.376;10.874;2023-08-20T12:22:36;100017.97;;;32.10;43.74
46714;BME280;32445;51.376;10.874;2023-08-20T12:25:36;100012.59;;;32.10;43.82
46714;BME280;32445;51.376;10.874;2023-08-20T12:28:37;100018.78;;;32.11;43.54
46714;BME280;32445;51.376;10.874;2023-08-20T12:31:38;100018.63;;;32.12;43.37
46714;BME280;32445;51.376;10.874;2023-08-20T12:34:38;100014.97;;;32.13;42.84
46714;BME280;32445;51.376;10.874;2023-08-20T12:37:39;100017.47;;;32.15;42.78
46714;BME280;32445;51.376;10.874;2023-08-20T12:40:39;100021.84;;;32.16;42.66
46714;BME280;32445;51.376;10.874;2023-08-20T12:43:42;100016.81;;;32.13;42.18
46714;BME280;32445;51.376;10.874;2023-08-20T12:46:42;100019.66;;;32.11;43.18
46714;BME280;32445;51.376;10.874;2023-08-20T12:49:42;100014.28;;;32.11;42.12
46714;BME280;32445;51.376;10.874;2023-08-20T12:52:43;100014.41;;;32.09;42.64
46714;BME280;32445;51.376;10.874;2023-08-20T12:55:43;100009.03;;;32.09;42.43
46714;BME280;32445;51.376;10.874;2023-08-20T12:58:44;100006.91;;;32.13;42.86
46714;BME280;32445;51.376;10.874;2023-08-20T13:01:44;100004.56;;;32.18;43.21
46714;BME280;32445;51.376;10.874;2023-08-20T13:04:44;100008.56;;;32.22;42.50
46714;BME280;32445;51.376;10.874;2023-08-20T13:07:45;100004.53;;;32.26;43.20
46714;BME280;32445;51.376;10.874;2023-08-20T13:10:53;99998.50;;;32.33;42.98
46714;BME280;32445;51.376;10.874;2023-08-20T13:13:55;99999.50;;;32.40;43.16
46714;BME280;32445;51.376;10.874;2023-08-20T13:16:56;100003.19;;;32.47;42.11
46714;BME280;32445;51.376;10.874;2023-08-20T13:19:56;100003.50;;;32.52;42.59
46714;BME280;32445;51.376;10.874;2023-08-20T13:22:57;99983.69;;;32.62;42.00
46714;BME280;32445;51.376;10.874;2023-08-20T13:25:57;99988.72;;;32.73;42.39
46714;BME280;32445;51.376;10.874;2023-08-20T13:28:57;99994.56;;;32.85;43.14
46714;BME280;32445;51.376;10.874;2023-08-20T13:31:58;99985.22;;;33.04;42.56
46714;BME280;32445;51.376;10.874;2023-08-20T13:34:58;99992.09;;;33.23;42.13
46714;BME280;32445;51.376;10.874;2023-08-20T13:37:58;99982.03;;;33.40;41.49
46714;BME280;32445;51.376;10.874;2023-08-20T13:40:59;99981.63;;;33.51;41.00
46714;BME280;32445;51.376;10.874;2023-08-20T13:43:59;99979.84;;;33.67;40.56
46714;BME280;32445;51.376;10.874;2023-08-20T13:46:59;99984.50;;;33.73;40.29
46714;BME280;32445;51.376;10.874;2023-08-20T13:50:00;99980.00;;;33.73;40.80
46714;BME280;32445;51.376;10.874;2023-08-20T13:53:00;99972.03;;;33.80;40.76
46714;BME280;32445;51.376;10.874;2023-08-20T13:56:01;99965.22;;;33.92;41.18
46714;BME280;32445;51.376;10.874;2023-08-20T13:59:01;99971.94;;;34.11;41.37
46714;BME280;32445;51.376;10.874;2023-08-20T14:02:01;99970.91;;;34.36;40.03
46714;BME280;32445;51.376;10.874;2023-08-20T14:05:02;99970.66;;;34.60;38.39
46714;BME280;32445;51.376;10.874;2023-08-20T14:08:04;99957.75;;;34.71;37.68
46714;BME280;32445;51.376;10.874;2023-08-20T14:11:05;99954.41;;;34.83;38.28
46714;BME280;32445;51.376;10.874;2023-08-20T14:14:05;99952.44;;;34.92;38.01
46714;BME280;32445;51.376;10.874;2023-08-20T14:17:06;99945.16;;;35.08;38.03
46714;BME280;32445;51.376;10.874;2023-08-20T14:20:07;99942.59;;;35.21;38.19
46714;BME280;32445;51.376;10.874;2023-08-20T14:23:08;99935.56;;;35.42;37.96
46714;BME280;32445;51.376;10.874;2023-08-20T14:26:08;99941.56;;;35.59;36.76
46714;BME280;32445;51.376;10.874;2023-08-20T14:29:09;99936.28;;;35.72;37.29
46714;BME280;32445;51.376;10.874;2023-08-20T14:32:09;99938.28;;;35.85;37.74
46714;BME280;32445;51.376;10.874;2023-08-20T14:35:09;99933.59;;;35.94;37.04
46714;BME280;32445;51.376;10.874;2023-08-20T14:38:11;99934.72;;;36.06;36.50
46714;BME280;32445;51.376;10.874;2023-08-20T14:41:11;99929.50;;;36.05;36.17
46714;BME280;32445;51.376;10.874;2023-08-20T14:44:12;99925.66;;;36.14;36.50
46714;BME280;32445;51.376;10.874;2023-08-20T14:47:13;99934.63;;;36.21;35.58
46714;BME280;32445;51.376;10.874;2023-08-20T14:50:13;99930.09;;;36.28;36.19
46714;BME280;32445;51.376;10.874;2023-08-20T14:53:14;99923.97;;;36.41;36.24
46714;BME280;32445;51.376;10.874;2023-08-20T14:56:14;99923.41;;;36.52;36.15
46714;BME280;32445;51.376;10.874;2023-08-20T14:59:15;99914.69;;;36.57;35.94
46714;BME280;32445;51.376;10.874;2023-08-20T15:02:15;99916.19;;;36.66;35.35
46714;BME280;32445;51.376;10.874;2023-08-20T15:05:16;99909.13;;;36.72;34.77
46714;BME280;32445;51.376;10.874;2023-08-20T15:08:16;99911.22;;;36.77;35.40
46714;BME280;32445;51.376;10.874;2023-08-20T15:11:17;99907.34;;;36.86;36.11
46714;BME280;32445;51.376;10.874;2023-08-20T15:14:17;99910.09;;;36.99;34.74
46714;BME280;32445;51.376;10.874;2023-08-20T15:17:17;99907.00;;;37.09;35.23
46714;BME280;32445;51.376;10.874;2023-08-20T15:20:18;99901.22;;;37.19;35.14
46714;BME280;32445;51.376;10.874;2023-08-20T15:23:18;99908.09;;;37.28;36.07
46714;BME280;32445;51.376;10.874;2023-08-20T15:26:19;99903.16;;;37.38;35.93
46714;BME280;32445;51.376;10.874;2023-08-20T15:29:19;99906.50;;;37.47;36.22
46714;BME280;32445;51.376;10.874;2023-08-20T15:32:20;99899.81;;;37.56;35.42
46714;BME280;32445;51.376;10.874;2023-08-20T15:35:21;99908.34;;;37.67;35.85
46714;BME280;32445;51.376;10.874;2023-08-20T15:38:21;99906.28;;;37.76;34.44
46714;BME280;32445;51.376;10.874;2023-08-20T15:41:21;99911.72;;;37.82;33.87
46714;BME280;32445;51.376;10.874;2023-08-20T15:44:22;99903.16;;;37.85;33.15
46714;BME280;32445;51.376;10.874;2023-08-20T15:47:22;99908.59;;;37.92;34.31
46714;BME280;32445;51.376;10.874;2023-08-20T15:50:23;99908.38;;;38.00;34.49
46714;BME280;32445;51.376;10.874;2023-08-20T15:53:23;99897.31;;;38.08;34.55
46714;BME280;32445;51.376;10.874;2023-08-20T15:56:27;99897.50;;;38.14;34.34
46714;BME280;32445;51.376;10.874;2023-08-20T15:59:27;99897.31;;;38.15;35.04